Time;durP1;ratioP1;P1;durP2;ratioP2;P2;SDS_P1;SDS_P2;PMS_P1;PMS_P2;Temp;Humidity;BMP_temperature;BMP_pressure;BME280_temperature;BME280_humidity;BME280_pressure;Samples;Min_cycle;Max_cycle;Signal;HPM_P1;HPM_P2
2023/05/23 00:04:05;;;;;;;;;;;;;;;16.1;63.6123;102075.4;;;;-70
2023/05/23 00:09:05;;;;;;;;;;;;;;;16.03;63.43359;102077.3;;;;-70
2023/05/23 00:09:46;;;;;;;0.5;0.1;;;;;;;;;;;;;-69
2023/05/23 00:14:07;;;;;;;;;;;;;;;15.98;63.14551;102071.3;;;;-69
2023/05/23 00:19:05;;;;;;;;;;;;;;;15.97;63.54785;102074;;;;-69
2023/05/23 00:24:08;;;;;;;;;;;;;;;15.92;63.66406;102072.5;;;;-68
2023/05/23 00:29:05;;;;;;;;;;;;;;;15.88;64.21094;102073.8;;;;-67
2023/05/23 00:34:05;;;;;;;;;;;;;;;15.85;63.64355;102075.4;;;;-71
2023/05/23 00:39:05;;;;;;;;;;;;;;;15.86;64.00488;102080.8;;;;-68
2023/05/23 00:39:51;;;;;;;0.2;0;;;;;;;;;;;;;-69
2023/05/23 00:44:16;;;;;;;;;;;;;;;15.81;63.86328;102082.9;;;;-70
2023/05/23 00:49:07;;;;;;;;;;;;;;;15.77;63.98047;102087.5;;;;-69
2023/05/23 00:54:16;;;;;;;;;;;;;;;15.75;63.99902;102092;;;;-68
2023/05/23 00:59:05;;;;;;;;;;;;;;;15.7;63.54199;102099.8;;;;-68
2023/05/23 01:04:05;;;;;;;;;;;;;;;15.68;64.59668;102097.1;;;;-70
2023/05/23 01:09:05;;;;;;;;;;;;;;;15.63;64.34277;102096.9;;;;-70
2023/05/23 01:09:50;;;;;;;0.3;0.1;;;;;;;;;;;;;-68
2023/05/23 01:14:08;;;;;;;;;;;;;;;15.63;64.53418;102101.9;;;;-70
2023/05/23 01:19:13;;;;;;;;;;;;;;;15.58;64.77539;102088.6;;;;-69
2023/05/23 01:24:24;;;;;;;;;;;;;;;15.58;63.875;102090.8;;;;-69
2023/05/23 01:29:09;;;;;;;;;;;;;;;15.5;64.75195;102095.4;;;;-69
2023/05/23 01:34:09;;;;;;;;;;;;;;;15.51;64.25684;102089.7;;;;-69
2023/05/23 01:39:08;;;;;;;;;;;;;;;15.44;64.29297;102089.7;;;;-69
2023/05/23 01:39:54;;;;;;;0.2;0.1;;;;;;;;;;;;;-68
2023/05/23 01:44:06;;;;;;;;;;;;;;;15.42;63.36816;102093.2;;;;-70
2023/05/23 01:49:06;;;;;;;;;;;;;;;15.38;63.56543;102093.8;;;;-69
2023/05/23 01:54:05;;;;;;;;;;;;;;;15.32;63.5;102095.9;;;;-68
2023/05/23 01:59:05;;;;;;;;;;;;;;;15.31;63.7793;102101;;;;-69
2023/05/23 02:04:05;;;;;;;;;;;;;;;15.29;63.84277;102105.5;;;;-68
2023/05/23 02:09:07;;;;;;;;;;;;;;;15.27;64.22363;102113.6;;;;-69
2023/05/23 02:09:54;;;;;;;0.2;0.1;;;;;;;;;;;;;-69
2023/05/23 02:14:06;;;;;;;;;;;;;;;15.23;63.73242;102127.6;;;;-68
2023/05/23 02:19:08;;;;;;;;;;;;;;;15.2;64.12305;102126.3;;;;-68
2023/05/23 02:24:05;;;;;;;;;;;;;;;15.17;64.60156;102135.3;;;;-69
2023/05/23 02:29:05;;;;;;;;;;;;;;;15.11;64.01953;102140.7;;;;-68
2023/05/23 02:34:06;;;;;;;;;;;;;;;15.1;64.35645;102140.1;;;;-69
2023/05/23 02:39:05;;;;;;;;;;;;;;;15.09;63.82715;102140;;;;-68
2023/05/23 02:39:56;;;;;;;0.2;0.1;;;;;;;;;;;;;-68
2023/05/23 02:44:05;;;;;;;;;;;;;;;15.03;63.54785;102152.2;;;;-68
2023/05/23 02:49:05;;;;;;;;;;;;;;;15.01;63.92676;102155.1;;;;-69
2023/05/23 02:54:05;;;;;;;;;;;;;;;14.96;64.11035;102158.1;;;;-70
2023/05/23 02:59:06;;;;;;;;;;;;;;;14.95;63.98633;102158.9;;;;-69
2023/05/23 03:04:07;;;;;;;;;;;;;;;14.88;63.67285;102164.5;;;;-70
2023/05/23 03:09:06;;;;;;;;;;;;;;;14.9;64.21484;102172.7;;;;-69
2023/05/23 03:09:59;;;;;;;0.2;0;;;;;;;;;;;;;-68
2023/05/23 03:14:10;;;;;;;;;;;;;;;14.85;64.33984;102172.4;;;;-70
2023/05/23 03:19:05;;;;;;;;;;;;;;;14.85;63.73535;102180.2;;;;-69
2023/05/23 03:24:08;;;;;;;;;;;;;;;14.81;64.23535;102179.7;;;;-69
2023/05/23 03:29:05;;;;;;;;;;;;;;;14.73;63.89746;102179.5;;;;-68
2023/05/23 03:34:05;;;;;;;;;;;;;;;14.71;63.8623;102188.7;;;;-69
2023/05/23 03:39:11;;;;;;;;;;;;;;;14.67;63.79883;102191.1;;;;-69
2023/05/23 03:40:03;;;;;;;0.2;0.1;;;;;;;;;;;;;-69
2023/05/23 03:44:05;;;;;;;;;;;;;;;14.61;64.2041;102200.7;;;;-70
2023/05/23 03:49:05;;;;;;;;;;;;;;;14.55;64.03906;102204.7;;;;-68
2023/05/23 03:54:07;;;;;;;;;;;;;;;14.53;63.53223;102208.2;;;;-69
2023/05/23 03:59:05;;;;;;;;;;;;;;;14.52;63.39551;102209.8;;;;-69
2023/05/23 04:04:06;;;;;;;;;;;;;;;14.51;63.24902;102209.3;;;;-71
2023/05/23 04:09:05;;;;;;;;;;;;;;;14.44;63.65332;102214.5;;;;-69
2023/05/23 04:10:01;;;;;;;0.2;0.1;;;;;;;;;;;;;-69
2023/05/23 04:14:07;;;;;;;;;;;;;;;14.41;63.4707;102216.9;;;;-69
2023/05/23 04:19:05;;;;;;;;;;;;;;;14.4;63.16406;102218.9;;;;-69
2023/05/23 04:24:05;;;;;;;;;;;;;;;14.39;63.15332;102228.3;;;;-68
2023/05/23 04:29:07;;;;;;;;;;;;;;;14.39;63.35352;102235.3;;;;-70
2023/05/23 04:34:06;;;;;;;;;;;;;;;14.36;63.2373;102244.4;;;;-69
2023/05/23 04:39:08;;;;;;;;;;;;;;;14.32;63.04199;102250.1;;;;-69
2023/05/23 04:40:04;;;;;;;0.2;0.1;;;;;;;;;;;;;-69
2023/05/23 04:44:05;;;;;;;;;;;;;;;14.32;62.8623;102248.5;;;;-70
2023/05/23 04:49:05;;;;;;;;;;;;;;;14.31;62.9834;102255.3;;;;-71
2023/05/23 04:54:05;;;;;;;;;;;;;;;14.27;62.86523;102270.1;;;;-68
2023/05/23 04:59:07;;;;;;;;;;;;;;;14.27;62.78711;102273.2;;;;-71
2023/05/23 05:04:12;;;;;;;;;;;;;;;14.29;62.4541;102271.1;;;;-68
2023/05/23 05:09:05;;;;;;;;;;;;;;;14.29;62.31934;102272.2;;;;-70
2023/05/23 05:10:05;;;;;;;0.2;0.1;;;;;;;;;;;;;-69
2023/05/23 05:14:05;;;;;;;;;;;;;;;14.3;62.51074;102273.2;;;;-68
2023/05/23 05:19:05;;;;;;;;;;;;;;;14.36;62.49707;102286.4;;;;-68
2023/05/23 05:24:08;;;;;;;;;;;;;;;14.29;62.61133;102297.2;;;;-69
2023/05/23 05:29:05;;;;;;;;;;;;;;;14.3;63.23926;102295.8;;;;-69
2023/05/23 05:34:05;;;;;;;;;;;;;;;14.28;62.90039;102303;;;;-68
2023/05/23 05:39:05;;;;;;;;;;;;;;;14.27;63.03418;102311.2;;;;-68
2023/05/23 05:40:08;;;;;;;0.2;0.1;;;;;;;;;;;;;-69
2023/05/23 05:44:08;;;;;;;;;;;;;;;14.18;64.19824;102315.5;;;;-68
2023/05/23 05:49:07;;;;;;;;;;;;;;;14.22;64.20508;102328.5;;;;-69
2023/05/23 05:54:05;;;;;;;;;;;;;;;14.19;63.77441;102332.3;;;;-70
2023/05/23 05:59:05;;;;;;;;;;;;;;;14.18;64.17578;102324.1;;;;-70
2023/05/23 06:04:06;;;;;;;;;;;;;;;14.27;64.20117;102333.4;;;;-70
2023/05/23 06:09:08;;;;;;;;;;;;;;;14.24;63.85938;102335.7;;;;-68
2023/05/23 06:10:11;;;;;;;0.2;0.1;;;;;;;;;;;;;-68
2023/05/23 06:14:10;;;;;;;;;;;;;;;14.2;63.68555;102333.3;;;;-68
2023/05/23 06:19:05;;;;;;;;;;;;;;;14.21;63.91211;102342.7;;;;-68
2023/05/23 06:24:05;;;;;;;;;;;;;;;14.33;63.22266;102338.1;;;;-69
2023/05/23 06:29:05;;;;;;;;;;;;;;;14.59;62.49707;102347.6;;;;-67
2023/05/23 06:34:05;;;;;;;;;;;;;;;14.97;61.69629;102351.7;;;;-70
2023/05/23 06:39:05;;;;;;;;;;;;;;;15.28;60.22168;102352.3;;;;-69
2023/05/23 06:40:13;;;;;;;0.2;0.1;;;;;;;;;;;;;-71
2023/05/23 06:44:05;;;;;;;;;;;;;;;15.55;59.52539;102360.3;;;;-68
2023/05/23 06:49:05;;;;;;;;;;;;;;;15.72;59.01953;102356.9;;;;-69
2023/05/23 06:54:05;;;;;;;;;;;;;;;15.81;58.60352;102357.7;;;;-69
2023/05/23 06:59:09;;;;;;;;;;;;;;;16.03;58.42969;102356.4;;;;-70
2023/05/23 07:04:06;;;;;;;;;;;;;;;16.16;57.4082;102358.5;;;;-70
2023/05/23 07:09:07;;;;;;;;;;;;;;;16.11;57.36816;102360.3;;;;-69
2023/05/23 07:10:13;;;;;;;1.4;0.4;;;;;;;;;;;;;-69
2023/05/23 07:14:07;;;;;;;;;;;;;;;16.3;57.09961;102367.2;;;;-69
2023/05/23 07:19:05;;;;;;;;;;;;;;;16.57;56.62598;102367.8;;;;-68
2023/05/23 07:24:06;;;;;;;;;;;;;;;16.65;55.92383;102371.9;;;;-68
2023/05/23 07:29:05;;;;;;;;;;;;;;;16.74;55.79883;102382.4;;;;-69
2023/05/23 07:34:05;;;;;;;;;;;;;;;16.82;55.55078;102385.4;;;;-68
2023/05/23 07:39:08;;;;;;;;;;;;;;;17.04;54.86523;102384;;;;-70
2023/05/23 07:40:14;;;;;;;0.2;0;;;;;;;;;;;;;-69
2023/05/23 07:44:05;;;;;;;;;;;;;;;17.28;54.30566;102381.9;;;;-70
2023/05/23 07:49:05;;;;;;;;;;;;;;;17.36;54.12305;102390.5;;;;-69
2023/05/23 07:54:05;;;;;;;;;;;;;;;17.34;53.63379;102395.3;;;;-70
2023/05/23 07:59:05;;;;;;;;;;;;;;;17.25;53.40723;102388;;;;-69
2023/05/23 08:04:07;;;;;;;;;;;;;;;17.72;52.73828;102391.4;;;;-68
2023/05/23 08:09:05;;;;;;;;;;;;;;;17.92;51.97949;102401.6;;;;-68
2023/05/23 08:10:16;;;;;;;0.3;0.1;;;;;;;;;;;;;-69
2023/05/23 08:14:07;;;;;;;;;;;;;;;18.42;51.09473;102405.8;;;;-69
2023/05/23 08:19:07;;;;;;;;;;;;;;;18.71;50.71777;102407.5;;;;-69
2023/05/23 08:24:07;;;;;;;;;;;;;;;19.01;50.17383;102409.3;;;;-70
2023/05/23 08:29:05;;;;;;;;;;;;;;;18.81;50.12695;102412.2;;;;-68
2023/05/23 08:34:05;;;;;;;;;;;;;;;18.99;50.11328;102415.1;;;;-69
2023/05/23 08:39:08;;;;;;;;;;;;;;;19.5;49.23633;102408.6;;;;-69
2023/05/23 08:40:24;;;;;;;0.2;0;;;;;;;;;;;;;-72
2023/05/23 08:44:05;;;;;;;;;;;;;;;19.68;48.56152;102411.9;;;;-69
2023/05/23 08:49:05;;;;;;;;;;;;;;;19.47;48.83496;102416.7;;;;-69
2023/05/23 08:54:05;;;;;;;;;;;;;;;19.35;49.42578;102418.9;;;;-69
2023/05/23 08:59:08;;;;;;;;;;;;;;;19.49;49.04199;102422.3;;;;-70
2023/05/23 09:04:05;;;;;;;;;;;;;;;19.34;49.07031;102434.1;;;;-68
2023/05/23 09:09:06;;;;;;;;;;;;;;;19.22;48.97852;102438.7;;;;-68
2023/05/23 09:10:22;;;;;;;1.2;0.5;;;;;;;;;;;;;-68
2023/05/23 09:14:13;;;;;;;;;;;;;;;19.31;49.27246;102437.3;;;;-69
2023/05/23 09:19:12;;;;;;;;;;;;;;;19.78;48.48047;102436.9;;;;-70
2023/05/23 09:24:05;;;;;;;;;;;;;;;20.12;47.15918;102443.7;;;;-69
2023/05/23 09:29:09;;;;;;;;;;;;;;;20.13;47.13672;102448;;;;-69
2023/05/23 09:39:38;;;;;;;;;;;;;;;19.9;47.5918;102463.3;;;;-72
2023/05/23 09:40:37;;;;;;;0.3;0.1;;;;;;;;;;;;;-72
2023/05/23 09:44:14;;;;;;;;;;;;;;;19.86;47.30273;102468.9;;;;-71
2023/05/23 09:49:08;;;;;;;;;;;;;;;19.85;47.50684;102474.6;;;;-72
2023/05/23 09:54:05;;;;;;;;;;;;;;;19.9;47.33008;102475.4;;;;-72
2023/05/23 09:59:07;;;;;;;;;;;;;;;20.25;47.20703;102473.5;;;;-72
2023/05/23 10:04:06;;;;;;;;;;;;;;;20.41;46.38965;102469.8;;;;-73
2023/05/23 10:09:10;;;;;;;;;;;;;;;20.45;46.33594;102470.7;;;;-72
2023/05/23 10:10:29;;;;;;;0.3;0.2;;;;;;;;;;;;;-73
2023/05/23 10:14:10;;;;;;;;;;;;;;;20.47;45.87012;102471.3;;;;-73
2023/05/23 10:19:09;;;;;;;;;;;;;;;20.37;46.38574;102470.5;;;;-71
2023/05/23 10:24:06;;;;;;;;;;;;;;;20.35;46.33691;102475.2;;;;-70
2023/05/23 10:29:05;;;;;;;;;;;;;;;20.44;46.41602;102479.9;;;;-70
2023/05/23 10:34:08;;;;;;;;;;;;;;;21.01;45.69629;102462.3;;;;-68
2023/05/23 10:39:12;;;;;;;;;;;;;;;21.25;44.75977;102475.4;;;;-69
2023/05/23 10:40:39;;;;;;;1.2;0.2;;;;;;;;;;;;;-69
2023/05/23 10:44:17;;;;;;;;;;;;;;;21.12;44.80273;102476.2;;;;-69
2023/05/23 10:49:05;;;;;;;;;;;;;;;21.2;44.65039;102474.7;;;;-68
2023/05/23 10:54:13;;;;;;;;;;;;;;;21.17;44.71582;102482.5;;;;-69
2023/05/23 10:59:10;;;;;;;;;;;;;;;21.43;44.28516;102488.8;;;;-68
2023/05/23 11:04:11;;;;;;;;;;;;;;;21.42;44.14551;102485.3;;;;-69
2023/05/23 11:09:17;;;;;;;;;;;;;;;21.44;43.96484;102490.6;;;;-70
2023/05/23 11:10:36;;;;;;;0.2;0;;;;;;;;;;;;;-71
2023/05/23 11:14:05;;;;;;;;;;;;;;;21.33;43.87207;102486.8;;;;-69
2023/05/23 11:19:19;;;;;;;;;;;;;;;21.28;44.78516;102492.5;;;;-72
2023/05/23 11:24:07;;;;;;;;;;;;;;;21.4;44.21191;102486.5;;;;-70
2023/05/23 11:29:11;;;;;;;;;;;;;;;21.52;43.53613;102491.7;;;;-69
2023/05/23 11:34:05;;;;;;;;;;;;;;;21.52;43.8457;102501;;;;-69
2023/05/23 11:39:05;;;;;;;;;;;;;;;21.7;44.24121;102508.6;;;;-69
2023/05/23 11:40:40;;;;;;;0.3;0.1;;;;;;;;;;;;;-69
2023/05/23 11:44:15;;;;;;;;;;;;;;;22.09;44.07422;102507.1;;;;-69
2023/05/23 11:49:07;;;;;;;;;;;;;;;22.09;43.74121;102496.1;;;;-69
2023/05/23 11:54:07;;;;;;;;;;;;;;;22.05;42.91016;102501.9;;;;-69
2023/05/23 11:59:07;;;;;;;;;;;;;;;21.97;43.12012;102505.1;;;;-70
2023/05/23 12:04:12;;;;;;;;;;;;;;;22.18;42.85449;102497.9;;;;-68
2023/05/23 12:09:08;;;;;;;;;;;;;;;22.77;42.77246;102499.7;;;;-69
2023/05/23 12:10:51;;;;;;;0.2;0.1;;;;;;;;;;;;;-69
2023/05/23 12:14:05;;;;;;;;;;;;;;;22.87;41.94141;102501.7;;;;-69
2023/05/23 12:19:06;;;;;;;;;;;;;;;22.99;41.02051;102504.6;;;;-69
2023/05/23 12:24:14;;;;;;;;;;;;;;;23.06;41.32617;102507.5;;;;-69
2023/05/23 12:29:05;;;;;;;;;;;;;;;23.48;41.07617;102516.1;;;;-71
2023/05/23 12:34:05;;;;;;;;;;;;;;;23.82;41.52246;102503.6;;;;-69
2023/05/23 12:39:10;;;;;;;;;;;;;;;23.98;39.14941;102513.9;;;;-70
2023/05/23 12:40:45;;;;;;;1.3;0.9;;;;;;;;;;;;;-70
2023/05/23 12:44:05;;;;;;;;;;;;;;;23.64;40.88379;102510.7;;;;-69
2023/05/23 12:49:05;;;;;;;;;;;;;;;23.87;40.8457;102515.3;;;;-70
2023/05/23 12:54:05;;;;;;;;;;;;;;;23.79;40.41211;102520;;;;-69
2023/05/23 12:59:05;;;;;;;;;;;;;;;23.78;39.35059;102519.8;;;;-71
2023/05/23 13:04:05;;;;;;;;;;;;;;;24.17;39.1416;102528.3;;;;-69
2023/05/23 13:09:05;;;;;;;;;;;;;;;24.19;39.6748;102525.7;;;;-70
2023/05/23 13:10:49;;;;;;;0.3;0.1;;;;;;;;;;;;;-68
2023/05/23 13:14:06;;;;;;;;;;;;;;;23.82;38.66113;102532;;;;-69
2023/05/23 13:19:12;;;;;;;;;;;;;;;23.65;40.00781;102532.6;;;;-70
2023/05/23 13:24:18;;;;;;;;;;;;;;;23.77;39.74121;102532.4;;;;-70
2023/05/23 13:29:05;;;;;;;;;;;;;;;23.69;37.8877;102534;;;;-69
2023/05/23 13:34:05;;;;;;;;;;;;;;;23.82;39.73535;102540.9;;;;-69
2023/05/23 13:39:05;;;;;;;;;;;;;;;24.15;37.96094;102530.9;;;;-70
2023/05/23 13:40:56;;;;;;;1.9;0.2;;;;;;;;;;;;;-70
2023/05/23 13:44:10;;;;;;;;;;;;;;;24.3;38.4248;102529;;;;-71
2023/05/23 13:49:08;;;;;;;;;;;;;;;24.24;39.16016;102536.2;;;;-70
2023/05/23 13:54:08;;;;;;;;;;;;;;;24.17;38.62305;102533.2;;;;-70
2023/05/23 13:59:06;;;;;;;;;;;;;;;24.07;38.87891;102536.6;;;;-71
2023/05/23 14:04:06;;;;;;;;;;;;;;;23.9;37.47852;102535.6;;;;-69
2023/05/23 14:09:06;;;;;;;;;;;;;;;23.57;38.58203;102523.8;;;;-72
2023/05/23 14:10:58;;;;;;;0.2;0;;;;;;;;;;;;;-70
2023/05/23 14:14:10;;;;;;;;;;;;;;;23.3;38.39746;102526.8;;;;-72
2023/05/23 14:19:05;;;;;;;;;;;;;;;23.28;39.07617;102528.8;;;;-70
2023/05/23 14:24:07;;;;;;;;;;;;;;;23.11;38.98047;102533.5;;;;-69
2023/05/23 14:29:10;;;;;;;;;;;;;;;22.87;39.25977;102542.8;;;;-69
2023/05/23 14:34:05;;;;;;;;;;;;;;;22.9;40.09082;102533.7;;;;-70
2023/05/23 14:39:07;;;;;;;;;;;;;;;23.32;38.81445;102538.6;;;;-70
2023/05/23 14:41:06;;;;;;;0.2;0.1;;;;;;;;;;;;;-68
2023/05/23 14:44:05;;;;;;;;;;;;;;;23.36;38.9209;102541.2;;;;-70
2023/05/23 14:49:05;;;;;;;;;;;;;;;23.41;38.68359;102546.2;;;;-69
2023/05/23 14:54:08;;;;;;;;;;;;;;;23.5;38.95605;102540.7;;;;-69
2023/05/23 14:59:07;;;;;;;;;;;;;;;23.71;38.375;102539;;;;-70
2023/05/23 15:04:07;;;;;;;;;;;;;;;23.9;38.45996;102542.3;;;;-70
2023/05/23 15:09:05;;;;;;;;;;;;;;;24.13;37.32422;102538.7;;;;-70
2023/05/23 15:11:05;;;;;;;0.3;0.2;;;;;;;;;;;;;-71
2023/05/23 15:14:09;;;;;;;;;;;;;;;24.23;36.55859;102545.5;;;;-72
2023/05/23 15:19:06;;;;;;;;;;;;;;;24.17;37.00391;102546.9;;;;-73
2023/05/23 15:24:05;;;;;;;;;;;;;;;24.31;35.34961;102552.8;;;;-70
2023/05/23 15:29:11;;;;;;;;;;;;;;;24.38;35.99219;102556.3;;;;-71
2023/05/23 15:34:05;;;;;;;;;;;;;;;24.26;35.3457;102540.7;;;;-70
2023/05/23 15:39:07;;;;;;;;;;;;;;;22.67;36.7998;102559.3;;;;-75
2023/05/23 15:44:07;;;;;;;;;;;;;;;21.95;36.90039;102556.4;;;;-75
2023/05/23 15:49:07;;;;;;;;;;;;;;;22.46;37.54297;102565.2;;;;-71
2023/05/23 15:54:17;;;;;;;;;;;;;;;22.62;35.43555;102564.8;;;;-72
2023/05/23 15:59:06;;;;;;;;;;;;;;;22.57;36.95215;102560.2;;;;-68
2023/05/23 16:04:05;;;;;;;;;;;;;;;22.63;35.32129;102560.4;;;;-68
2023/05/23 16:09:08;;;;;;;;;;;;;;;22.59;36.55078;102559.8;;;;-69
2023/05/23 16:11:16;;;;;;;4.9;0.3;;;;;;;;;;;;;-70
2023/05/23 16:14:10;;;;;;;;;;;;;;;22.51;36.7168;102559;;;;-70
2023/05/23 16:19:06;;;;;;;;;;;;;;;22.41;36.96289;102557.9;;;;-69
2023/05/23 16:24:05;;;;;;;;;;;;;;;22.43;36.38867;102568.6;;;;-70
2023/05/23 16:29:07;;;;;;;;;;;;;;;22.52;36.80957;102563.8;;;;-69
2023/05/23 16:34:07;;;;;;;;;;;;;;;22.54;37.33008;102561.5;;;;-71
2023/05/23 16:39:08;;;;;;;;;;;;;;;22.39;36.52344;102560.9;;;;-70
2023/05/23 16:41:17;;;;;;;0.2;0.1;;;;;;;;;;;;;-69
2023/05/23 16:44:11;;;;;;;;;;;;;;;22.06;37.05957;102560.6;;;;-70
2023/05/23 16:49:07;;;;;;;;;;;;;;;21.91;36.8877;102561.9;;;;-69
2023/05/23 16:54:07;;;;;;;;;;;;;;;21.71;37.31738;102558.6;;;;-70
2023/05/23 16:59:18;;;;;;;;;;;;;;;21.51;37.77246;102560.8;;;;-70
2023/05/23 17:04:11;;;;;;;;;;;;;;;21.36;37.78223;102558.4;;;;-75
2023/05/23 17:09:08;;;;;;;;;;;;;;;21.23;37.99023;102566.3;;;;-75
2023/05/23 17:11:21;;;;;;;0.2;0.1;;;;;;;;;;;;;-74
2023/05/23 17:14:07;;;;;;;;;;;;;;;21.04;38.61719;102568.5;;;;-74
2023/05/23 17:19:05;;;;;;;;;;;;;;;20.89;38.95898;102564.4;;;;-75
2023/05/23 17:24:05;;;;;;;;;;;;;;;20.79;39.07617;102566.3;;;;-74
2023/05/23 17:29:10;;;;;;;;;;;;;;;20.63;39.08496;102563.6;;;;-75
2023/05/23 17:34:20;;;;;;;;;;;;;;;20.52;39.05273;102568.4;;;;-74
2023/05/23 17:39:08;;;;;;;;;;;;;;;20.38;39.30371;102569.4;;;;-76
2023/05/23 17:41:27;;;;;;;0.2;0;;;;;;;;;;;;;-70
2023/05/23 17:44:05;;;;;;;;;;;;;;;20.19;39.55078;102569;;;;-69
2023/05/23 17:49:06;;;;;;;;;;;;;;;19.98;39.65723;102571.6;;;;-70
2023/05/23 17:54:05;;;;;;;;;;;;;;;19.81;39.87109;102576.1;;;;-69
2023/05/23 17:59:09;;;;;;;;;;;;;;;19.62;40.46094;102580.6;;;;-69
2023/05/23 18:04:05;;;;;;;;;;;;;;;19.38;40.60938;102575.2;;;;-70
2023/05/23 18:09:05;;;;;;;;;;;;;;;19.24;41.29395;102581;;;;-69
2023/05/23 18:11:33;;;;;;;0.6;0.3;;;;;;;;;;;;;-68
2023/05/23 18:14:06;;;;;;;;;;;;;;;19.15;41.20508;102583.6;;;;-69
2023/05/23 18:19:05;;;;;;;;;;;;;;;19.02;41.63867;102581.5;;;;-69
2023/05/23 18:24:12;;;;;;;;;;;;;;;18.84;41.51855;102583.8;;;;-68
2023/05/23 18:29:07;;;;;;;;;;;;;;;18.71;42.09863;102581.9;;;;-70
2023/05/23 18:34:05;;;;;;;;;;;;;;;18.56;42.2793;102583.6;;;;-71
2023/05/23 18:39:05;;;;;;;;;;;;;;;18.36;42.58887;102585.4;;;;-70
2023/05/23 18:41:41;;;;;;;0.5;0.3;;;;;;;;;;;;;-69
2023/05/23 18:44:10;;;;;;;;;;;;;;;18.16;42.94531;102595.7;;;;-69
2023/05/23 18:49:05;;;;;;;;;;;;;;;17.95;42.72168;102591.5;;;;-69
2023/05/23 18:54:05;;;;;;;;;;;;;;;17.78;43.12598;102598.8;;;;-68
2023/05/23 18:59:05;;;;;;;;;;;;;;;17.55;42.33008;102591.7;;;;-68
2023/05/23 19:04:06;;;;;;;;;;;;;;;17.34;43.00293;102595.2;;;;-69
2023/05/23 19:09:08;;;;;;;;;;;;;;;17.11;43.09375;102589.3;;;;-70
2023/05/23 19:11:34;;;;;;;4.5;0.5;;;;;;;;;;;;;-70
2023/05/23 19:14:05;;;;;;;;;;;;;;;16.85;43.28516;102599.6;;;;-68
2023/05/23 19:19:05;;;;;;;;;;;;;;;16.62;43.1377;102604.1;;;;-70
2023/05/23 19:24:10;;;;;;;;;;;;;;;16.41;43.66016;102602.7;;;;-68
2023/05/23 19:29:06;;;;;;;;;;;;;;;16.22;43.53906;102624.1;;;;-70
2023/05/23 19:34:07;;;;;;;;;;;;;;;16.01;44.13184;102637.4;;;;-73
2023/05/23 19:39:06;;;;;;;;;;;;;;;15.83;44.19238;102644.4;;;;-68
2023/05/23 19:41:36;;;;;;;1.2;0.1;;;;;;;;;;;;;-70
2023/05/23 19:44:07;;;;;;;;;;;;;;;15.69;44.38184;102644.4;;;;-69
2023/05/23 19:49:10;;;;;;;;;;;;;;;15.49;44.73535;102653.7;;;;-71
2023/05/23 19:54:08;;;;;;;;;;;;;;;15.32;45.12402;102652.4;;;;-70
2023/05/23 19:59:08;;;;;;;;;;;;;;;15.15;45.2666;102658.2;;;;-73
2023/05/23 20:04:11;;;;;;;;;;;;;;;14.98;45.64258;102650.7;;;;-69
2023/05/23 20:09:05;;;;;;;;;;;;;;;14.81;45.72754;102645.6;;;;-68
2023/05/23 20:11:39;;;;;;;0.2;0.1;;;;;;;;;;;;;-68
2023/05/23 20:14:10;;;;;;;;;;;;;;;14.65;45.96973;102640;;;;-67
2023/05/23 20:19:08;;;;;;;;;;;;;;;14.47;46.40234;102629.1;;;;-71
2023/05/23 20:24:10;;;;;;;;;;;;;;;14.33;46.6123;102630.7;;;;-72
2023/05/23 20:34:09;;;;;;;;;;;;;;;14.04;47.04492;102631;;;;-70
2023/05/23 20:39:07;;;;;;;;;;;;;;;13.91;47.24414;102633.1;;;;-70
2023/05/23 20:41:40;;;;;;;0.2;0;;;;;;;;;;;;;-69
2023/05/23 20:44:11;;;;;;;;;;;;;;;13.78;47.4668;102637.4;;;;-68
2023/05/23 20:49:08;;;;;;;;;;;;;;;13.61;47.35938;102641.3;;;;-69
2023/05/23 20:54:06;;;;;;;;;;;;;;;13.49;47.72754;102643.3;;;;-70
2023/05/23 20:59:06;;;;;;;;;;;;;;;13.36;48.13965;102642.5;;;;-68
2023/05/23 21:04:06;;;;;;;;;;;;;;;13.23;48.01367;102646.2;;;;-69
2023/05/23 21:09:07;;;;;;;;;;;;;;;13.1;48.42676;102643.4;;;;-71
2023/05/23 21:11:42;;;;;;;0.2;0;;;;;;;;;;;;;-69
2023/05/23 21:14:06;;;;;;;;;;;;;;;12.97;48.43457;102647.1;;;;-69
2023/05/23 21:19:06;;;;;;;;;;;;;;;12.86;48.2998;102644.3;;;;-69
2023/05/23 21:24:05;;;;;;;;;;;;;;;12.77;48.60352;102641.2;;;;-70
2023/05/23 21:29:05;;;;;;;;;;;;;;;12.66;48.5918;102641.9;;;;-69
2023/05/23 21:34:05;;;;;;;;;;;;;;;12.55;48.98242;102644;;;;-68
2023/05/23 21:39:05;;;;;;;;;;;;;;;12.48;48.90723;102651.1;;;;-69
2023/05/23 21:41:44;;;;;;;0.2;0.1;;;;;;;;;;;;;-69
2023/05/23 21:44:05;;;;;;;;;;;;;;;12.34;49.48633;102656.6;;;;-70
2023/05/23 21:49:05;;;;;;;;;;;;;;;12.26;49.53418;102641.6;;;;-69
2023/05/23 21:54:05;;;;;;;;;;;;;;;12.15;49.43164;102641.5;;;;-71
2023/05/23 21:59:07;;;;;;;;;;;;;;;12.09;49.77246;102635.6;;;;-69
2023/05/23 22:04:05;;;;;;;;;;;;;;;12.01;49.56152;102632;;;;-68
2023/05/23 22:09:08;;;;;;;;;;;;;;;11.88;49.80371;102635.8;;;;-68
2023/05/23 22:11:45;;;;;;;0.2;0.1;;;;;;;;;;;;;-69
2023/05/23 22:14:05;;;;;;;;;;;;;;;11.81;50.18848;102627.8;;;;-69
2023/05/23 22:19:05;;;;;;;;;;;;;;;11.7;50.28711;102626.3;;;;-69
2023/05/23 22:24:05;;;;;;;;;;;;;;;11.62;50.30078;102628.6;;;;-68
2023/05/23 22:29:08;;;;;;;;;;;;;;;11.58;50.35156;102631.8;;;;-69
2023/05/23 22:34:05;;;;;;;;;;;;;;;11.46;50.47168;102630.5;;;;-68
2023/05/23 22:39:05;;;;;;;;;;;;;;;11.41;50.68848;102625.3;;;;-68
2023/05/23 22:41:47;;;;;;;0.2;0.1;;;;;;;;;;;;;-70
2023/05/23 22:44:05;;;;;;;;;;;;;;;11.3;50.76758;102626.9;;;;-69
2023/05/23 22:49:05;;;;;;;;;;;;;;;11.2;50.90137;102626.6;;;;-68
2023/05/23 22:54:10;;;;;;;;;;;;;;;11.16;50.90625;102631.5;;;;-69
2023/05/23 22:59:05;;;;;;;;;;;;;;;11.1;50.94434;102627;;;;-68
2023/05/23 23:04:05;;;;;;;;;;;;;;;11.02;51.00293;102627.3;;;;-69
2023/05/23 23:09:05;;;;;;;;;;;;;;;10.93;51.18164;102615.7;;;;-69
2023/05/23 23:11:48;;;;;;;0.2;0;;;;;;;;;;;;;-69
2023/05/23 23:14:05;;;;;;;;;;;;;;;10.88;51.46582;102608.5;;;;-68
2023/05/23 23:19:05;;;;;;;;;;;;;;;10.8;51.44629;102620;;;;-69
2023/05/23 23:24:05;;;;;;;;;;;;;;;10.73;51.73828;102628;;;;-68
2023/05/23 23:29:05;;;;;;;;;;;;;;;10.64;51.94043;102618.8;;;;-68
2023/05/23 23:34:05;;;;;;;;;;;;;;;10.62;51.88184;102610.1;;;;-68
2023/05/23 23:39:05;;;;;;;;;;;;;;;10.54;51.68262;102601.4;;;;-68
2023/05/23 23:41:50;;;;;;;0.2;0.1;;;;;;;;;;;;;-70
2023/05/23 23:44:05;;;;;;;;;;;;;;;10.49;52.21191;102590;;;;-69
2023/05/23 23:49:07;;;;;;;;;;;;;;;10.43;51.90332;102589.2;;;;-70
2023/05/23 23:54:05;;;;;;;;;;;;;;;10.34;52.2168;102587.5;;;;-69
2023/05/23 23:59:05;;;;;;;;;;;;;;;10.21;52.38965;102599.9;;;;-69
